Time;durP1;ratioP1;P1;durP2;ratioP2;P2;SDS_P1;SDS_P2;PMS_P1;PMS_P2;Temp;Humidity;BMP_temperature;BMP_pressure;BME280_temperature;BME280_humidity;BME280_pressure;Samples;Min_cycle;Max_cycle;Signal;HPM_P1;HPM_P2
2023/10/15 00:00:24;;;;;;;1999.90;999.90;;;7.60;99.90;;;;;;5050455;28;20052;-71
2023/10/15 00:02:51;;;;;;;1999.90;999.90;;;7.50;99.90;;;;;;5044558;28;20044;-71
2023/10/15 00:05:25;;;;;;;1999.90;999.90;;;7.50;99.90;;;;;;5048257;28;20083;-72
2023/10/15 00:07:51;;;;;;;1999.90;999.90;;;7.40;99.90;;;;;;5039661;28;20049;-71
2023/10/15 00:10:30;;;;;;;1999.90;999.90;;;7.30;99.90;;;;;;5058120;28;20453;-72
2023/10/15 00:12:57;;;;;;;1999.90;999.90;;;7.30;99.90;;;;;;5042812;28;20431;-72
2023/10/15 00:15:25;;;;;;;1999.90;999.90;;;7.30;99.90;;;;;;5048881;28;20045;-72
2023/10/15 00:17:59;;;;;;;1999.90;999.90;;;7.20;99.90;;;;;;5062966;28;20045;-72
2023/10/15 00:20:31;;;;;;;1999.90;999.90;;;7.20;99.90;;;;;;5043316;28;20052;-72
2023/10/15 00:23:04;;;;;;;1999.90;999.90;;;7.20;99.90;;;;;;5048270;28;20067;-72
2023/10/15 00:25:34;;;;;;;1999.90;999.90;;;7.20;99.90;;;;;;5040416;28;20506;-72
2023/10/15 00:28:01;;;;;;;1999.90;999.90;;;7.10;99.90;;;;;;5039361;28;20466;-72
2023/10/15 00:30:33;;;;;;;1999.90;999.90;;;7.10;99.90;;;;;;5029034;28;20147;-72
2023/10/15 00:33:03;;;;;;;1999.90;999.90;;;7.10;99.90;;;;;;5035146;28;20033;-72
2023/10/15 00:35:33;;;;;;;1999.90;999.90;;;7.10;99.90;;;;;;5057325;28;20052;-72
2023/10/15 00:38:07;;;;;;;1999.90;999.90;;;7.10;99.90;;;;;;5038403;28;20041;-72
2023/10/15 00:40:37;;;;;;;1999.90;999.90;;;7.10;99.90;;;;;;5046125;28;20083;-71
2023/10/15 00:43:04;;;;;;;1999.90;999.90;;;7.10;99.90;;;;;;5048241;28;20095;-72
2023/10/15 00:45:35;;;;;;;1999.90;999.90;;;7.10;99.90;;;;;;5041368;28;20056;-72
2023/10/15 00:48:08;;;;;;;1999.90;999.90;;;7.10;99.90;;;;;;5047445;28;20466;-72
2023/10/15 00:50:42;;;;;;;1999.90;999.90;;;7.10;99.90;;;;;;5031610;28;20443;-72
2023/10/15 00:53:22;;;;;;;;;;;7.20;99.90;;;;;;5042332;28;20529;-71
2023/10/15 00:56:02;;;;;;;1999.90;999.90;;;7.20;99.90;;;;;;5040078;28;20011;-72
2023/10/15 00:58:34;;;;;;;1999.90;999.90;;;7.20;99.90;;;;;;5019109;28;20052;-71
2023/10/15 01:01:01;;;;;;;1999.90;999.90;;;7.10;99.90;;;;;;5048729;28;20064;-72
2023/10/15 01:03:33;;;;;;;1999.90;999.90;;;7.00;99.90;;;;;;5039118;28;20090;-71
2023/10/15 01:06:05;;;;;;;1999.90;999.90;;;7.00;99.90;;;;;;5026690;28;20603;-71
2023/10/15 01:08:39;;;;;;;1999.90;999.90;;;6.90;99.90;;;;;;5026313;28;20103;-72
2023/10/15 01:11:15;;;;;;;;;;;6.80;99.90;;;;;;5025797;28;20033;-71
2023/10/15 01:13:41;;;;;;;1999.90;999.90;;;6.80;99.90;;;;;;5035069;28;20393;-71
2023/10/15 01:16:08;;;;;;;1999.90;999.90;;;6.70;99.90;;;;;;5039425;28;20079;-71
2023/10/15 01:18:36;;;;;;;1999.90;999.90;;;6.60;99.90;;;;;;5057855;28;20052;-72
2023/10/15 01:21:04;;;;;;;1999.90;999.90;;;6.60;99.90;;;;;;5018042;28;20040;-71
2023/10/15 01:23:44;;;;;;;1999.90;999.90;;;6.60;99.90;;;;;;5054374;28;20037;-72
2023/10/15 01:26:23;;;;;;;1999.90;999.90;;;6.50;99.90;;;;;;5048405;28;20052;-71
2023/10/15 01:28:51;;;;;;;1999.90;999.90;;;6.50;99.90;;;;;;5046307;28;20048;-71
2023/10/15 01:31:17;;;;;;;1999.90;999.90;;;6.50;99.90;;;;;;5049933;28;20449;-71
2023/10/15 01:33:46;;;;;;;1999.90;999.90;;;6.50;99.90;;;;;;5059599;28;20041;-71
2023/10/15 01:36:19;;;;;;;1999.90;999.90;;;6.50;99.90;;;;;;5033797;28;20468;-72
2023/10/15 01:38:45;;;;;;;1999.90;999.90;;;6.40;99.90;;;;;;5045077;28;20493;-71
2023/10/15 01:41:15;;;;;;;1999.90;999.90;;;6.50;99.90;;;;;;5026446;28;20057;-71
2023/10/15 01:43:46;;;;;;;1999.90;999.90;;;6.60;99.90;;;;;;5036071;28;20146;-72
2023/10/15 01:46:12;;;;;;;1999.90;999.90;;;6.80;99.90;;;;;;5023835;28;20037;-72
2023/10/15 01:48:41;;;;;;;1999.90;999.90;;;7.00;99.90;;;;;;5047358;28;20045;-71
2023/10/15 01:51:07;;;;;;;1999.90;999.90;;;7.10;99.90;;;;;;5025643;28;20037;-71
2023/10/15 01:53:37;;;;;;;1999.90;999.90;;;7.20;99.90;;;;;;5025529;28;20090;-73
2023/10/15 01:56:04;;;;;;;1999.90;999.90;;;7.10;99.90;;;;;;5044887;28;20045;-72
2023/10/15 01:58:33;;;;;;;1999.90;999.90;;;7.10;99.90;;;;;;5042032;28;20166;-71
2023/10/15 02:01:09;;;;;;;1999.90;999.90;;;7.10;99.90;;;;;;5041330;28;20055;-71
2023/10/15 02:03:37;;;;;;;1999.90;999.90;;;7.00;99.90;;;;;;5035337;28;20099;-71
2023/10/15 02:06:06;;;;;;;1999.90;999.90;;;7.00;99.90;;;;;;5040988;28;20128;-71
2023/10/15 02:08:33;;;;;;;1999.90;999.90;;;6.90;99.90;;;;;;5055171;28;20052;-72
2023/10/15 02:11:03;;;;;;;1999.90;999.90;;;6.90;99.90;;;;;;5041206;28;20037;-71
2023/10/15 02:13:30;;;;;;;1999.90;999.90;;;6.80;99.90;;;;;;5043742;28;20079;-71
2023/10/15 02:15:57;;;;;;;1999.90;999.90;;;6.70;99.90;;;;;;5043550;28;20531;-70
2023/10/15 02:18:22;;;;;;;1999.90;999.90;;;6.70;99.90;;;;;;5047902;28;20052;-71
2023/10/15 02:23:18;;;;;;;1999.90;999.90;;;6.80;99.90;;;;;;5044622;28;20064;-71
2023/10/15 02:25:56;;;;;;;1999.90;999.90;;;6.80;99.90;;;;;;5042553;28;20495;-71
2023/10/15 02:28:31;;;;;;;1999.90;999.90;;;6.80;99.90;;;;;;5048370;28;20045;-71
2023/10/15 02:31:20;;;;;;;1999.90;999.90;;;6.90;99.90;;;;;;5052334;28;21286;-71
2023/10/15 02:33:44;;;;;;;1999.90;999.90;;;6.90;99.90;;;;;;5034923;28;20395;-71
2023/10/15 02:36:15;;;;;;;1999.90;999.90;;;6.90;99.90;;;;;;5037462;28;20402;-72
2023/10/15 02:38:52;;;;;;;1999.90;999.90;;;7.00;99.90;;;;;;5035951;28;20059;-71
2023/10/15 02:41:18;;;;;;;1999.90;999.90;;;7.10;99.90;;;;;;5036261;28;20138;-71
2023/10/15 02:43:51;;;;;;;1999.90;999.90;;;7.10;99.90;;;;;;5028961;28;20076;-71
2023/10/15 02:46:22;;;;;;;1999.90;999.90;;;7.10;99.90;;;;;;5036502;28;20045;-72
2023/10/15 02:48:49;;;;;;;1999.90;999.90;;;7.10;99.90;;;;;;5044267;28;20425;-72
2023/10/15 02:51:19;;;;;;;1999.90;999.90;;;7.10;99.90;;;;;;5055504;28;20079;-73
2023/10/15 02:53:52;;;;;;;1999.90;999.90;;;7.10;99.90;;;;;;5029026;28;20056;-73
2023/10/15 02:56:17;;;;;;;1999.90;999.90;;;7.10;99.90;;;;;;5036605;28;20040;-73
2023/10/15 02:58:44;;;;;;;1999.90;999.90;;;7.20;99.90;;;;;;5042815;28;20036;-73
2023/10/15 03:01:20;;;;;;;1999.90;999.90;;;7.10;99.90;;;;;;5041145;28;20741;-74
2023/10/15 03:03:50;;;;;;;1999.90;999.90;;;7.20;99.90;;;;;;5045896;28;20041;-73
2023/10/15 03:06:24;;;;;;;1999.90;999.90;;;7.20;99.90;;;;;;5038528;28;20048;-70
2023/10/15 03:08:51;;;;;;;1999.90;999.90;;;7.20;99.90;;;;;;5037730;28;20041;-73
2023/10/15 03:11:19;;;;;;;1999.90;999.90;;;7.30;99.90;;;;;;5036581;28;20065;-72
2023/10/15 03:13:55;;;;;;;1999.90;999.90;;;7.20;99.90;;;;;;5037645;28;20382;-72
2023/10/15 03:16:35;;;;;;;1999.90;999.90;;;7.20;99.90;;;;;;5036897;28;20037;-72
2023/10/15 03:19:18;;;;;;;1999.90;999.90;;;7.20;99.90;;;;;;5034223;28;20804;-73
2023/10/15 03:21:45;;;;;;;1999.90;999.90;;;7.20;99.90;;;;;;5042540;28;20439;-73
2023/10/15 03:24:14;;;;;;;1999.90;999.90;;;7.20;99.90;;;;;;5047614;28;20048;-73
2023/10/15 03:26:47;;;;;;;1999.90;999.90;;;7.20;99.90;;;;;;5050086;28;20064;-72
2023/10/15 03:29:15;;;;;;;1999.90;999.90;;;7.20;99.90;;;;;;5050829;28;20048;-72
2023/10/15 03:31:46;;;;;;;1999.90;999.90;;;7.10;99.90;;;;;;5039770;28;20433;-73
2023/10/15 03:36:46;;;;;;;1999.90;999.90;;;7.20;99.90;;;;;;5038547;28;20136;-72
2023/10/15 03:39:15;;;;;;;1999.90;999.90;;;7.30;99.90;;;;;;5060884;28;20044;-71
2023/10/15 03:41:49;;;;;;;1999.90;999.90;;;7.20;99.90;;;;;;5038245;28;20053;-72
2023/10/15 03:44:23;;;;;;;1999.90;999.90;;;7.20;99.90;;;;;;5043789;28;20428;-72
2023/10/15 03:46:49;;;;;;;1999.90;999.90;;;7.20;99.90;;;;;;5040944;28;20413;-71
2023/10/15 03:49:15;;;;;;;1999.90;999.90;;;7.10;99.90;;;;;;5038974;28;20374;-71
2023/10/15 03:51:48;;;;;;;1999.90;999.90;;;7.00;99.90;;;;;;5040834;28;20106;-70
2023/10/15 03:54:15;;;;;;;1999.90;999.90;;;7.00;99.90;;;;;;5045567;28;20041;-70
2023/10/15 03:56:43;;;;;;;1999.90;999.90;;;7.00;99.90;;;;;;5040658;28;20344;-70
2023/10/15 03:59:11;;;;;;;1999.90;999.90;;;6.90;99.90;;;;;;5026908;28;20048;-71
2023/10/15 04:01:43;;;;;;;1999.90;999.90;;;6.90;99.90;;;;;;5057069;28;20056;-72
2023/10/15 04:04:09;;;;;;;1999.90;999.90;;;6.80;99.90;;;;;;5044198;28;20499;-71
2023/10/15 04:06:35;;;;;;;1999.90;999.90;;;6.70;99.90;;;;;;5043495;28;20087;-71
2023/10/15 04:11:41;;;;;;;1999.90;999.90;;;6.70;99.90;;;;;;5035606;28;20045;-72
2023/10/15 04:14:17;;;;;;;1999.90;999.90;;;6.70;99.90;;;;;;5050491;28;20037;-71
2023/10/15 04:16:43;;;;;;;1999.90;999.90;;;6.60;99.90;;;;;;5039082;28;20033;-71
2023/10/15 04:19:09;;;;;;;1999.90;999.90;;;6.60;99.90;;;;;;5041705;28;20198;-71
2023/10/15 04:21:39;;;;;;;1999.90;999.90;;;6.50;99.90;;;;;;5036663;28;20068;-72
2023/10/15 04:24:08;;;;;;;1999.90;999.90;;;6.50;99.90;;;;;;5043055;28;20048;-72
2023/10/15 04:26:40;;;;;;;1999.90;999.90;;;6.50;99.90;;;;;;5045952;28;20044;-71
2023/10/15 04:29:17;;;;;;;1999.90;999.90;;;6.50;99.90;;;;;;5038852;28;20174;-71
2023/10/15 04:31:51;;;;;;;1999.90;999.90;;;6.40;99.90;;;;;;5038108;28;20037;-71
2023/10/15 04:34:18;;;;;;;1999.90;999.90;;;6.50;99.90;;;;;;5041633;28;20037;-71
2023/10/15 04:36:47;;;;;;;1999.90;999.90;;;6.40;99.90;;;;;;5045661;28;20126;-71
2023/10/15 04:39:16;;;;;;;1999.90;999.90;;;6.40;99.90;;;;;;5037240;28;20039;-71
2023/10/15 04:41:41;;;;;;;1999.90;999.90;;;6.40;99.90;;;;;;5039058;28;20513;-71
2023/10/15 04:44:11;;;;;;;1999.90;999.90;;;6.40;99.90;;;;;;5039581;28;20119;-71
2023/10/15 04:46:41;;;;;;;1999.90;999.90;;;6.30;99.90;;;;;;5037361;28;20041;-71
2023/10/15 04:49:08;;;;;;;1999.90;999.90;;;6.30;99.90;;;;;;5037436;28;20048;-72
2023/10/15 04:51:43;;;;;;;1999.90;999.90;;;6.30;99.90;;;;;;5029152;28;20040;-71
2023/10/15 04:54:12;;;;;;;1999.90;999.90;;;6.30;99.90;;;;;;5028224;28;20047;-71
2023/10/15 04:56:38;;;;;;;1999.90;999.90;;;6.20;99.90;;;;;;5040214;28;20413;-72
2023/10/15 04:59:04;;;;;;;1999.90;999.90;;;6.20;99.90;;;;;;5041179;28;20034;-71
2023/10/15 05:01:33;;;;;;;1999.90;999.90;;;6.20;99.90;;;;;;5044084;28;20503;-72
2023/10/15 05:04:00;;;;;;;1999.90;999.90;;;6.20;99.90;;;;;;5048003;28;20040;-71
2023/10/15 05:06:26;;;;;;;1999.90;999.90;;;6.20;99.90;;;;;;5024159;28;20040;-71
2023/10/15 05:08:53;;;;;;;1999.90;999.90;;;6.20;99.90;;;;;;5042235;28;20467;-71
2023/10/15 05:11:21;;;;;;;1999.90;999.90;;;6.20;99.90;;;;;;5039989;28;20147;-71
2023/10/15 05:13:48;;;;;;;1999.90;999.90;;;6.30;99.90;;;;;;5042508;28;20047;-71
2023/10/15 05:16:17;;;;;;;1999.90;999.90;;;6.30;99.90;;;;;;5040921;28;20053;-71
2023/10/15 05:18:47;;;;;;;1999.90;999.90;;;6.40;99.90;;;;;;5034119;28;20413;-71
2023/10/15 05:21:13;;;;;;;1999.90;999.90;;;6.40;99.90;;;;;;5055673;28;20436;-71
2023/10/15 05:23:39;;;;;;;1999.90;999.90;;;6.40;99.90;;;;;;5053030;28;20049;-72
2023/10/15 05:26:05;;;;;;;1999.90;999.90;;;6.40;99.90;;;;;;5037100;28;20041;-72
2023/10/15 05:28:31;;;;;;;1999.90;999.90;;;6.40;99.90;;;;;;5036397;28;20098;-72
2023/10/15 05:31:00;;;;;;;1999.90;999.90;;;6.40;99.90;;;;;;5038103;28;20033;-72
2023/10/15 05:33:28;;;;;;;1999.90;999.90;;;6.30;99.90;;;;;;5039846;28;20040;-72
2023/10/15 05:35:56;;;;;;;1999.90;999.90;;;6.30;99.90;;;;;;5037727;28;20079;-72
2023/10/15 05:38:22;;;;;;;1999.90;999.90;;;6.30;99.90;;;;;;5041891;28;20037;-72
2023/10/15 05:40:49;;;;;;;1999.90;999.90;;;6.30;99.90;;;;;;5041252;28;20045;-71
2023/10/15 05:43:17;;;;;;;1999.90;999.90;;;6.30;99.90;;;;;;5038920;28;20037;-72
2023/10/15 05:45:46;;;;;;;1999.90;999.90;;;6.40;99.90;;;;;;5036736;28;20053;-71
2023/10/15 05:48:12;;;;;;;1999.90;999.90;;;6.40;99.90;;;;;;5038599;28;20068;-72
2023/10/15 05:50:39;;;;;;;1999.90;999.90;;;6.40;99.90;;;;;;5036500;28;20041;-72
2023/10/15 05:53:06;;;;;;;1999.90;999.90;;;6.40;99.90;;;;;;5041438;28;20033;-72
2023/10/15 05:55:32;;;;;;;1999.90;999.90;;;6.50;99.90;;;;;;5037062;28;20082;-72
2023/10/15 05:57:58;;;;;;;1999.90;999.90;;;6.50;99.90;;;;;;5036037;28;20099;-72
2023/10/15 06:00:26;;;;;;;1999.90;999.90;;;6.50;99.90;;;;;;5039497;28;20052;-72
2023/10/15 06:02:56;;;;;;;1999.90;999.90;;;6.60;99.90;;;;;;5037703;28;20382;-72
2023/10/15 06:05:22;;;;;;;1999.90;999.90;;;6.60;99.90;;;;;;5033790;28;20048;-72
2023/10/15 06:07:49;;;;;;;1999.90;999.90;;;6.60;99.90;;;;;;5040369;28;20049;-72
2023/10/15 06:10:15;;;;;;;1999.90;999.90;;;6.70;99.90;;;;;;5047511;28;20098;-72
2023/10/15 06:12:41;;;;;;;1999.90;999.90;;;6.70;99.90;;;;;;5050176;28;20068;-72
2023/10/15 06:15:08;;;;;;;1999.90;999.90;;;6.70;99.90;;;;;;5043111;28;20044;-71
2023/10/15 06:17:35;;;;;;;1999.90;999.90;;;6.80;99.90;;;;;;5025383;28;20044;-72
2023/10/15 06:20:12;;;;;;;1999.90;999.90;;;6.80;99.90;;;;;;5046600;28;20082;-72
2023/10/15 06:22:47;;;;;;;1999.90;999.90;;;6.80;99.90;;;;;;5039966;28;20041;-73
2023/10/15 06:25:17;;;;;;;1999.90;999.90;;;6.80;99.90;;;;;;5034152;28;20077;-72
2023/10/15 06:27:43;;;;;;;1999.90;999.90;;;6.90;99.90;;;;;;5034051;28;20285;-72
2023/10/15 06:30:16;;;;;;;1999.90;999.90;;;6.90;99.90;;;;;;5025174;28;20033;-72
2023/10/15 06:32:44;;;;;;;1999.90;999.90;;;7.00;99.90;;;;;;5034544;28;20383;-72
2023/10/15 06:35:14;;;;;;;1999.90;999.90;;;7.00;99.90;;;;;;5044046;28;20047;-72
2023/10/15 06:37:40;;;;;;;1999.90;999.90;;;7.00;99.90;;;;;;5037589;28;20049;-71
2023/10/15 06:40:11;;;;;;;1999.90;999.90;;;7.00;99.90;;;;;;5049456;28;20053;-71
2023/10/15 06:42:37;;;;;;;1999.90;999.90;;;7.00;99.90;;;;;;5042447;28;20049;-70
2023/10/15 06:45:06;;;;;;;1999.90;999.90;;;7.00;99.90;;;;;;5036053;28;20056;-70
2023/10/15 06:47:33;;;;;;;1999.90;999.90;;;7.00;99.90;;;;;;5046876;28;20642;-70
2023/10/15 06:49:58;;;;;;;1999.90;999.90;;;7.00;99.90;;;;;;5035949;28;20120;-70
2023/10/15 06:52:24;;;;;;;1999.90;999.90;;;7.00;99.90;;;;;;5028274;28;20116;-71
2023/10/15 06:54:49;;;;;;;1999.90;999.90;;;6.90;99.90;;;;;;5039947;28;20067;-72
2023/10/15 06:57:16;;;;;;;1999.90;999.90;;;7.00;99.90;;;;;;5043576;28;20029;-71
2023/10/15 06:59:43;;;;;;;1999.90;999.90;;;7.00;99.90;;;;;;5035415;28;20140;-71
2023/10/15 07:02:09;;;;;;;1999.90;999.90;;;7.10;99.90;;;;;;5041936;28;20060;-72
2023/10/15 07:04:34;;;;;;;1999.90;999.90;;;7.20;99.90;;;;;;5036461;28;20041;-72
2023/10/15 07:07:00;;;;;;;1999.90;999.90;;;7.30;99.90;;;;;;5026192;28;20103;-73
2023/10/15 07:09:27;;;;;;;1999.90;999.90;;;7.40;99.90;;;;;;5025117;28;20481;-72
2023/10/15 07:11:53;;;;;;;1999.90;999.90;;;7.30;99.90;;;;;;5048925;28;20059;-70
2023/10/15 07:14:19;;;;;;;1999.90;999.90;;;7.20;99.90;;;;;;5046160;28;20094;-71
2023/10/15 07:16:45;;;;;;;1999.90;999.90;;;7.20;99.90;;;;;;5031933;28;20037;-71
2023/10/15 07:19:11;;;;;;;1999.90;999.90;;;7.10;99.90;;;;;;5044864;28;20041;-70
2023/10/15 07:21:37;;;;;;;1999.90;999.90;;;7.00;99.90;;;;;;5046559;28;20041;-70
2023/10/15 07:24:05;;;;;;;1999.90;999.90;;;7.00;99.90;;;;;;5049698;28;20042;-70
2023/10/15 07:26:30;;;;;;;1999.90;999.90;;;6.90;99.90;;;;;;5041479;28;20398;-71
2023/10/15 07:28:56;;;;;;;1999.90;999.90;;;6.90;99.90;;;;;;5043158;28;20060;-71
2023/10/15 07:31:22;;;;;;;1999.90;999.90;;;6.90;99.90;;;;;;5045940;28;20087;-71
2023/10/15 07:33:47;;;;;;;1999.90;999.90;;;6.90;99.90;;;;;;5039869;28;20060;-71
2023/10/15 07:36:13;;;;;;;1999.90;999.90;;;6.80;99.90;;;;;;5041095;28;20071;-71
2023/10/15 07:38:39;;;;;;;1999.90;999.90;;;6.90;99.90;;;;;;5041822;28;20044;-71
2023/10/15 07:41:05;;;;;;;1999.90;999.90;;;6.90;99.90;;;;;;5039097;28;20516;-71
2023/10/15 07:43:31;;;;;;;1999.90;999.90;;;6.90;99.90;;;;;;5023608;28;20040;-71
2023/10/15 07:45:59;;;;;;;1999.90;999.90;;;6.90;99.90;;;;;;5037664;28;20485;-72
2023/10/15 07:48:24;;;;;;;1999.90;999.90;;;6.90;99.90;;;;;;5037137;28;20056;-71
2023/10/15 07:50:50;;;;;;;1999.90;999.90;;;7.00;99.90;;;;;;5045872;28;20030;-72
2023/10/15 07:53:16;;;;;;;1999.90;999.90;;;7.00;99.90;;;;;;5040503;28;20036;-71
2023/10/15 07:55:41;;;;;;;1999.90;999.90;;;7.10;99.90;;;;;;5044975;28;20044;-72
2023/10/15 07:58:09;;;;;;;1999.90;999.90;;;7.10;99.90;;;;;;5044068;28;20060;-71
2023/10/15 08:00:35;;;;;;;1999.90;999.90;;;7.20;99.90;;;;;;5031098;28;20048;-71
2023/10/15 08:03:01;;;;;;;1999.90;999.90;;;7.30;99.90;;;;;;5033491;28;20501;-73
2023/10/15 08:05:32;;;;;;;1999.90;999.90;;;7.50;99.90;;;;;;5039119;28;20040;-71
2023/10/15 08:07:58;;;;;;;1999.90;999.90;;;7.60;99.90;;;;;;5055519;28;20481;-71
2023/10/15 08:10:25;;;;;;;1999.90;999.90;;;7.80;99.90;;;;;;5040236;28;20037;-72
2023/10/15 08:12:52;;;;;;;1999.90;999.90;;;7.90;99.90;;;;;;5025261;28;20038;-71
2023/10/15 08:15:18;;;;;;;1999.90;999.90;;;8.00;99.90;;;;;;5038572;28;20037;-72
2023/10/15 08:17:44;;;;;;;1999.90;999.90;;;7.90;99.90;;;;;;5038703;28;20124;-71
2023/10/15 08:20:10;;;;;;;1999.90;999.90;;;7.90;99.90;;;;;;5020166;28;20506;-72
2023/10/15 08:22:36;;;;;;;1999.90;999.90;;;7.90;99.90;;;;;;5039575;28;20124;-71
2023/10/15 08:25:02;;;;;;;1999.90;999.90;;;7.90;99.90;;;;;;5038926;28;20116;-72
2023/10/15 08:27:28;;;;;;;1999.90;999.90;;;8.00;99.90;;;;;;5040715;28;20056;-71
2023/10/15 08:29:53;;;;;;;1999.90;999.90;;;8.00;99.90;;;;;;5043933;28;20041;-71
2023/10/15 08:32:20;;;;;;;1999.90;999.90;;;8.00;99.90;;;;;;5042772;28;20036;-71
2023/10/15 08:34:47;;;;;;;1999.90;999.90;;;7.90;99.90;;;;;;5042668;28;20071;-71
2023/10/15 08:37:13;;;;;;;1999.90;999.90;;;7.90;99.90;;;;;;5039539;28;20049;-71
2023/10/15 08:39:39;;;;;;;1999.90;999.90;;;7.80;99.90;;;;;;5030307;28;20072;-72
2023/10/15 08:42:20;;;;;;;1999.90;999.90;;;7.80;99.90;;;;;;5035516;28;20428;-71
2023/10/15 08:44:48;;;;;;;1999.90;999.90;;;7.80;99.90;;;;;;5055853;28;20033;-71
2023/10/15 08:47:14;;;;;;;1999.90;999.90;;;8.10;99.90;;;;;;5045998;28;20049;-71
2023/10/15 08:49:46;;;;;;;1999.90;999.90;;;8.40;99.90;;;;;;5040410;28;20037;-71
2023/10/15 08:52:12;;;;;;;1999.90;999.90;;;8.90;99.90;;;;;;5048555;28;20692;-72
2023/10/15 08:54:40;;;;;;;1999.90;999.90;;;9.40;99.90;;;;;;5049228;28;20040;-72
2023/10/15 08:57:08;;;;;;;1999.90;999.90;;;9.80;99.90;;;;;;5050331;28;20048;-73
2023/10/15 08:59:35;;;;;;;1999.90;999.90;;;10.10;99.90;;;;;;5049927;28;20056;-73
2023/10/15 09:02:05;;;;;;;1999.90;999.90;;;10.40;99.90;;;;;;5046589;28;20496;-73
2023/10/15 09:04:32;;;;;;;1999.90;999.90;;;10.50;99.90;;;;;;5021779;28;20090;-72
2023/10/15 09:07:01;;;;;;;1999.90;999.90;;;10.40;99.90;;;;;;5046830;28;20048;-73
2023/10/15 09:09:34;;;;;;;1999.90;999.90;;;10.20;99.90;;;;;;5058217;28;20045;-72
2023/10/15 09:12:00;;;;;;;1999.90;999.90;;;10.20;99.90;;;;;;5052465;28;20095;-72
2023/10/15 09:14:39;;;;;;;1999.90;999.90;;;10.10;99.90;;;;;;5058505;28;20528;-72
2023/10/15 09:17:09;;;;;;;1999.90;999.90;;;10.10;99.90;;;;;;5051659;28;20041;-73
2023/10/15 09:19:39;;;;;;;1999.90;999.90;;;10.00;99.90;;;;;;5051617;28;20041;-73
2023/10/15 09:22:14;;;;;;;1999.90;999.90;;;10.00;99.90;;;;;;5040071;28;20072;-72
2023/10/15 09:24:46;;;;;;;1999.90;999.90;;;9.90;99.90;;;;;;5047895;28;20045;-72
2023/10/15 09:27:13;;;;;;;1999.90;999.90;;;9.90;99.90;;;;;;5048822;28;20520;-72
2023/10/15 09:29:39;;;;;;;1999.90;999.90;;;9.80;99.90;;;;;;5050880;28;20040;-73
2023/10/15 09:32:05;;;;;;;1999.90;999.90;;;9.90;99.90;;;;;;5043759;28;20044;-73
2023/10/15 09:34:33;;;;;;;1999.90;999.90;;;10.10;99.90;;;;;;5048393;28;20083;-73
2023/10/15 09:36:59;;;;;;;1999.90;999.90;;;10.50;99.90;;;;;;5049346;28;20086;-73
2023/10/15 09:39:31;;;;;;;1999.90;999.90;;;10.90;99.90;;;;;;5049339;28;20040;-73
2023/10/15 09:42:02;;;;;;;1999.90;999.90;;;11.10;99.90;;;;;;5030772;28;20382;-73
2023/10/15 09:44:28;;;;;;;1999.90;999.90;;;11.00;99.90;;;;;;5047880;28;20052;-73
2023/10/15 09:46:55;;;;;;;1999.90;999.90;;;10.80;99.90;;;;;;5055487;28;20563;-72
2023/10/15 09:49:20;;;;;;;1999.90;999.90;;;10.80;99.90;;;;;;5045263;28;20068;-73
2023/10/15 09:51:47;;;;;;;1999.90;999.90;;;11.00;99.90;;;;;;5028850;28;20494;-73
2023/10/15 09:54:14;;;;;;;1999.90;999.90;;;11.30;99.90;;;;;;5050735;28;20111;-72
2023/10/15 09:56:48;;;;;;;1999.90;999.90;;;11.40;99.90;;;;;;5048404;28;20036;-72
2023/10/15 09:59:14;;;;;;;1999.90;999.90;;;11.30;99.90;;;;;;5049473;28;20052;-72
2023/10/15 10:02:06;;;;;;;1999.90;999.90;;;11.00;99.90;;;;;;5045373;28;20082;-71
2023/10/15 10:05:05;;;;;;;1999.90;999.90;;;10.60;99.90;;;;;;5051386;28;20575;-71
2023/10/15 10:07:31;;;;;;;1999.90;999.90;;;10.10;99.90;;;;;;5055859;28;20102;-71
2023/10/15 10:10:10;;;;;;;1999.90;999.90;;;9.80;99.90;;;;;;5027193;28;20489;-72
2023/10/15 10:12:45;;;;;;;1999.90;999.90;;;9.50;99.90;;;;;;5046753;28;20162;-71
2023/10/15 10:15:35;;;;;;;1999.90;999.90;;;9.70;99.90;;;;;;5040742;28;20047;-72
2023/10/15 10:18:02;;;;;;;1999.90;999.90;;;10.20;99.90;;;;;;5044022;28;20041;-73
2023/10/15 10:20:32;;;;;;;1999.90;999.90;;;10.50;99.90;;;;;;5039566;28;20052;-72
2023/10/15 10:23:02;;;;;;;1999.90;999.90;;;10.70;99.90;;;;;;5054050;28;20033;-73
2023/10/15 10:25:48;;;;;;;1999.90;999.90;;;10.60;99.90;;;;;;5042868;28;20506;-72
2023/10/15 10:28:19;;;;;;;1999.90;999.90;;;10.50;99.90;;;;;;5049106;28;20052;-72
2023/10/15 10:30:52;;;;;;;1999.90;999.90;;;10.40;99.90;;;;;;5049490;28;20071;-71
2023/10/15 10:33:37;;;;;;;1999.90;999.90;;;10.50;99.90;;;;;;5047687;28;20067;-72
2023/10/15 10:36:17;;;;;;;1999.90;999.90;;;10.60;99.90;;;;;;5039592;28;20048;-72
2023/10/15 10:38:44;;;;;;;1999.90;999.90;;;10.70;99.90;;;;;;5061571;28;20076;-72
2023/10/15 10:41:14;;;;;;;1999.90;999.90;;;10.80;99.90;;;;;;5027461;28;20454;-71
2023/10/15 10:43:43;;;;;;;1999.90;999.90;;;10.90;99.90;;;;;;5044364;28;20679;-72
2023/10/15 10:46:21;;;;;;;1999.90;999.90;;;11.10;99.90;;;;;;5048273;28;20049;-72
2023/10/15 10:49:03;;;;;;;1999.90;999.90;;;11.50;99.90;;;;;;5026685;28;20098;-72
2023/10/15 10:51:33;;;;;;;1999.90;999.90;;;11.70;99.90;;;;;;5025038;28;20037;-73
2023/10/15 10:53:59;;;;;;;1999.90;999.90;;;12.00;99.90;;;;;;5056806;28;20425;-69
2023/10/15 10:56:44;;;;;;;1999.90;999.90;;;11.90;99.90;;;;;;5045984;28;20055;-72
2023/10/15 10:59:12;;;;;;;1999.90;999.90;;;11.90;99.90;;;;;;5031714;28;20064;-73
2023/10/15 11:01:45;;;;;;;1999.90;999.90;;;12.10;99.90;;;;;;5043132;28;20041;-73
2023/10/15 11:04:15;;;;;;;1999.90;999.90;;;12.30;99.90;;;;;;5031031;28;20076;-74
2023/10/15 11:06:51;;;;;;;1999.90;999.90;;;12.30;99.90;;;;;;5031092;28;20386;-72
2023/10/15 11:09:19;;;;;;;1999.90;999.90;;;12.50;99.90;;;;;;5047181;28;20383;-72
2023/10/15 11:11:46;;;;;;;1999.90;999.90;;;12.60;99.90;;;;;;5024603;28;20040;-73
2023/10/15 11:14:16;;;;;;;1999.90;999.90;;;12.70;99.90;;;;;;5028826;28;20064;-72
2023/10/15 11:16:42;;;;;;;1999.90;999.90;;;12.80;99.90;;;;;;5036227;28;20094;-72
2023/10/15 11:19:18;;;;;;;1999.90;999.90;;;12.90;99.90;;;;;;5023815;28;20048;-73
2023/10/15 11:21:44;;;;;;;1999.90;999.90;;;13.10;99.90;;;;;;5042637;28;20052;-73
2023/10/15 11:24:11;;;;;;;1999.90;999.90;;;13.10;99.90;;;;;;5035421;28;20474;-74
2023/10/15 11:26:41;;;;;;;1999.90;999.90;;;13.20;99.90;;;;;;5018698;28;20056;-73
2023/10/15 11:29:11;;;;;;;1525.03;773.95;;;13.30;99.90;;;;;;5035436;28;20037;-74
2023/10/15 11:31:38;;;;;;;112.80;107.75;;;13.50;99.90;;;;;;5033028;28;20378;-73
2023/10/15 11:34:05;;;;;;;135.82;130.15;;;13.70;99.90;;;;;;5046246;28;20429;-73
2023/10/15 11:36:35;;;;;;;154.13;147.50;;;13.50;99.90;;;;;;5028353;28;20448;-74
2023/10/15 11:39:03;;;;;;;85.82;82.00;;;13.20;99.90;;;;;;5034766;28;20110;-73
2023/10/15 11:41:32;;;;;;;172.20;162.60;;;12.80;99.90;;;;;;5043250;28;20193;-72
2023/10/15 11:44:03;;;;;;;1999.90;999.90;;;12.50;99.90;;;;;;5046208;28;20102;-73
2023/10/15 11:46:30;;;;;;;1999.90;999.90;;;12.20;99.90;;;;;;5064262;28;20053;-74
2023/10/15 11:49:01;;;;;;;1999.90;999.90;;;12.00;99.90;;;;;;5035256;28;20041;-73
2023/10/15 11:51:31;;;;;;;1999.90;999.90;;;11.90;99.90;;;;;;5051032;28;20045;-72
2023/10/15 11:54:01;;;;;;;1999.90;999.90;;;11.90;99.90;;;;;;5025865;28;20173;-73
2023/10/15 11:56:31;;;;;;;1999.90;999.90;;;12.00;99.90;;;;;;5057422;28;20511;-73
2023/10/15 11:59:00;;;;;;;1999.90;999.90;;;12.30;99.90;;;;;;5042462;28;20052;-72
2023/10/15 12:01:28;;;;;;;1999.90;999.90;;;12.40;99.90;;;;;;5039455;28;20167;-72
2023/10/15 12:03:57;;;;;;;84.18;80.45;;;12.60;99.90;;;;;;5043984;28;20091;-72
2023/10/15 12:06:23;;;;;;;109.97;105.25;;;12.70;99.90;;;;;;5031802;28;20516;-72
2023/10/15 12:08:49;;;;;;;63.42;60.45;;;12.80;99.90;;;;;;5042993;28;20036;-73
2023/10/15 12:11:18;;;;;;;78.20;74.70;;;12.90;99.90;;;;;;5035389;28;20116;-74
2023/10/15 12:13:47;;;;;;;85.93;82.05;;;13.00;99.90;;;;;;5049807;28;20041;-73
2023/10/15 12:16:13;;;;;;;152.75;146.30;;;13.00;99.90;;;;;;5050972;28;20041;-73
2023/10/15 12:18:39;;;;;;;102.07;97.45;;;12.90;99.90;;;;;;5037105;28;20045;-74
2023/10/15 12:21:06;;;;;;;166.25;158.13;;;12.80;99.90;;;;;;5041204;28;20067;-73
2023/10/15 12:23:31;;;;;;;1999.90;999.90;;;12.50;99.90;;;;;;5048122;28;20382;-73
2023/10/15 12:25:57;;;;;;;1050.55;548.40;;;12.30;99.90;;;;;;5042230;28;20099;-74